sensor_id;sensor_type;location;lat;lon;timestamp;P1;durP1;ratioP1;P2;durP2;ratioP2
14247;SDS011;7208;49.826;6.004;2022-08-30T00:01:06;2.73;;;1.60;;
14247;SDS011;7208;49.826;6.004;2022-08-30T00:03:43;2.57;;;2.20;;
14247;SDS011;7208;49.826;6.004;2022-08-30T00:06:10;3.87;;;1.70;;
14247;SDS011;7208;49.826;6.004;2022-08-30T00:08:38;3.20;;;2.07;;
14247;SDS011;7208;49.826;6.004;2022-08-30T00:11:06;3.83;;;2.40;;
14247;SDS011;7208;49.826;6.004;2022-08-30T00:13:34;3.47;;;2.10;;
14247;SDS011;7208;49.826;6.004;2022-08-30T00:16:04;3.50;;;1.90;;
14247;SDS011;7208;49.826;6.004;2022-08-30T00:18:33;4.13;;;1.97;;
14247;SDS011;7208;49.826;6.004;2022-08-30T00:21:00;3.03;;;1.90;;
14247;SDS011;7208;49.826;6.004;2022-08-30T00:23:26;2.93;;;1.80;;
14247;SDS011;7208;49.826;6.004;2022-08-30T00:25:51;3.33;;;1.83;;
14247;SDS011;7208;49.826;6.004;2022-08-30T00:28:17;4.43;;;1.70;;
14247;SDS011;7208;49.826;6.004;2022-08-30T00:30:44;1.90;;;1.70;;
14247;SDS011;7208;49.826;6.004;2022-08-30T00:33:10;2.93;;;1.93;;
14247;SDS011;7208;49.826;6.004;2022-08-30T00:35:37;3.27;;;1.60;;
14247;SDS011;7208;49.826;6.004;2022-08-30T00:38:04;3.93;;;1.70;;
14247;SDS011;7208;49.826;6.004;2022-08-30T00:40:30;1.80;;;1.57;;
14247;SDS011;7208;49.826;6.004;2022-08-30T00:42:56;3.07;;;1.73;;
14247;SDS011;7208;49.826;6.004;2022-08-30T00:45:27;2.70;;;1.50;;
14247;SDS011;7208;49.826;6.004;2022-08-30T00:47:57;2.47;;;1.70;;
14247;SDS011;7208;49.826;6.004;2022-08-30T00:50:24;3.87;;;2.23;;
14247;SDS011;7208;49.826;6.004;2022-08-30T00:52:54;2.87;;;1.77;;
14247;SDS011;7208;49.826;6.004;2022-08-30T00:55:23;3.07;;;1.60;;
14247;SDS011;7208;49.826;6.004;2022-08-30T00:57:51;2.37;;;1.47;;
14247;SDS011;7208;49.826;6.004;2022-08-30T01:00:20;2.33;;;1.70;;
14247;SDS011;7208;49.826;6.004;2022-08-30T01:02:46;2.93;;;1.50;;
14247;SDS011;7208;49.826;6.004;2022-08-30T01:05:12;2.37;;;1.97;;
14247;SDS011;7208;49.826;6.004;2022-08-30T01:07:39;2.50;;;1.60;;
14247;SDS011;7208;49.826;6.004;2022-08-30T01:10:06;2.37;;;1.60;;
14247;SDS011;7208;49.826;6.004;2022-08-30T01:12:34;1.87;;;1.60;;
14247;SDS011;7208;49.826;6.004;2022-08-30T01:15:01;3.00;;;1.60;;
14247;SDS011;7208;49.826;6.004;2022-08-30T01:17:27;2.43;;;1.70;;
14247;SDS011;7208;49.826;6.004;2022-08-30T01:20:09;2.13;;;1.70;;
14247;SDS011;7208;49.826;6.004;2022-08-30T01:25:20;3.63;;;1.63;;
14247;SDS011;7208;49.826;6.004;2022-08-30T01:28:10;2.47;;;1.97;;
14247;SDS011;7208;49.826;6.004;2022-08-30T01:30:37;2.30;;;1.90;;
14247;SDS011;7208;49.826;6.004;2022-08-30T01:33:04;2.27;;;1.90;;
14247;SDS011;7208;49.826;6.004;2022-08-30T01:35:32;1.80;;;1.70;;
14247;SDS011;7208;49.826;6.004;2022-08-30T01:38:07;3.53;;;1.80;;
14247;SDS011;7208;49.826;6.004;2022-08-30T01:40:33;3.13;;;1.87;;
14247;SDS011;7208;49.826;6.004;2022-08-30T01:42:59;3.90;;;1.70;;
14247;SDS011;7208;49.826;6.004;2022-08-30T01:45:24;2.27;;;2.00;;
14247;SDS011;7208;49.826;6.004;2022-08-30T01:47:50;1.80;;;1.70;;
14247;SDS011;7208;49.826;6.004;2022-08-30T01:50:15;2.10;;;1.67;;
14247;SDS011;7208;49.826;6.004;2022-08-30T01:52:41;4.20;;;2.20;;
14247;SDS011;7208;49.826;6.004;2022-08-30T01:55:07;2.20;;;2.00;;
14247;SDS011;7208;49.826;6.004;2022-08-30T01:57:33;3.43;;;2.67;;
14247;SDS011;7208;49.826;6.004;2022-08-30T01:59:59;4.10;;;2.00;;
14247;SDS011;7208;49.826;6.004;2022-08-30T02:02:25;2.90;;;2.23;;
14247;SDS011;7208;49.826;6.004;2022-08-30T02:04:53;2.00;;;1.80;;
14247;SDS011;7208;49.826;6.004;2022-08-30T02:07:20;5.47;;;2.27;;
14247;SDS011;7208;49.826;6.004;2022-08-30T02:09:47;6.10;;;2.20;;
14247;SDS011;7208;49.826;6.004;2022-08-30T02:12:13;6.27;;;2.10;;
14247;SDS011;7208;49.826;6.004;2022-08-30T02:14:39;9.97;;;2.50;;
14247;SDS011;7208;49.826;6.004;2022-08-30T02:17:06;3.47;;;2.63;;
14247;SDS011;7208;49.826;6.004;2022-08-30T02:19:34;4.53;;;2.40;;
14247;SDS011;7208;49.826;6.004;2022-08-30T02:21:59;1.83;;;1.70;;
14247;SDS011;7208;49.826;6.004;2022-08-30T02:24:25;2.57;;;1.80;;
14247;SDS011;7208;49.826;6.004;2022-08-30T02:26:51;2.10;;;1.90;;
14247;SDS011;7208;49.826;6.004;2022-08-30T02:29:20;6.17;;;2.47;;
14247;SDS011;7208;49.826;6.004;2022-08-30T02:31:46;2.87;;;1.50;;
14247;SDS011;7208;49.826;6.004;2022-08-30T02:34:13;3.50;;;2.03;;
14247;SDS011;7208;49.826;6.004;2022-08-30T02:36:39;2.37;;;2.13;;
14247;SDS011;7208;49.826;6.004;2022-08-30T02:39:05;3.57;;;2.50;;
14247;SDS011;7208;49.826;6.004;2022-08-30T02:41:33;4.93;;;2.47;;
14247;SDS011;7208;49.826;6.004;2022-08-30T02:43:58;2.97;;;2.60;;
14247;SDS011;7208;49.826;6.004;2022-08-30T02:46:25;2.40;;;2.20;;
14247;SDS011;7208;49.826;6.004;2022-08-30T02:48:51;2.30;;;2.10;;
14247;SDS011;7208;49.826;6.004;2022-08-30T02:51:18;4.17;;;2.50;;
14247;SDS011;7208;49.826;6.004;2022-08-30T02:53:43;2.47;;;2.27;;
14247;SDS011;7208;49.826;6.004;2022-08-30T02:56:10;6.43;;;2.70;;
14247;SDS011;7208;49.826;6.004;2022-08-30T02:58:37;3.67;;;2.40;;
14247;SDS011;7208;49.826;6.004;2022-08-30T03:01:06;3.43;;;2.50;;
14247;SDS011;7208;49.826;6.004;2022-08-30T03:03:32;4.23;;;2.50;;
14247;SDS011;7208;49.826;6.004;2022-08-30T03:05:58;6.03;;;2.67;;
14247;SDS011;7208;49.826;6.004;2022-08-30T03:08:23;2.83;;;2.50;;
14247;SDS011;7208;49.826;6.004;2022-08-30T03:10:49;4.10;;;2.70;;
14247;SDS011;7208;49.826;6.004;2022-08-30T03:13:15;2.73;;;2.10;;
14247;SDS011;7208;49.826;6.004;2022-08-30T03:15:40;3.23;;;2.70;;
14247;SDS011;7208;49.826;6.004;2022-08-30T03:18:06;3.60;;;2.53;;
14247;SDS011;7208;49.826;6.004;2022-08-30T03:20:32;2.90;;;2.53;;
14247;SDS011;7208;49.826;6.004;2022-08-30T03:23:01;2.30;;;2.10;;
14247;SDS011;7208;49.826;6.004;2022-08-30T03:25:27;2.97;;;2.17;;
14247;SDS011;7208;49.826;6.004;2022-08-30T03:27:53;3.03;;;2.37;;
14247;SDS011;7208;49.826;6.004;2022-08-30T03:30:19;3.93;;;2.40;;
14247;SDS011;7208;49.826;6.004;2022-08-30T03:32:45;3.80;;;2.50;;
14247;SDS011;7208;49.826;6.004;2022-08-30T03:35:11;3.20;;;2.40;;
14247;SDS011;7208;49.826;6.004;2022-08-30T03:37:37;3.67;;;2.80;;
14247;SDS011;7208;49.826;6.004;2022-08-30T03:40:03;2.40;;;2.20;;
14247;SDS011;7208;49.826;6.004;2022-08-30T03:42:31;3.80;;;2.60;;
14247;SDS011;7208;49.826;6.004;2022-08-30T03:44:57;2.23;;;1.87;;
14247;SDS011;7208;49.826;6.004;2022-08-30T03:47:22;3.10;;;2.30;;
14247;SDS011;7208;49.826;6.004;2022-08-30T03:49:48;3.77;;;2.93;;
14247;SDS011;7208;49.826;6.004;2022-08-30T03:52:14;3.10;;;2.80;;
14247;SDS011;7208;49.826;6.004;2022-08-30T03:54:39;4.33;;;2.63;;
14247;SDS011;7208;49.826;6.004;2022-08-30T03:57:05;3.40;;;2.30;;
14247;SDS011;7208;49.826;6.004;2022-08-30T03:59:31;3.47;;;2.97;;
14247;SDS011;7208;49.826;6.004;2022-08-30T04:01:57;3.97;;;3.30;;
14247;SDS011;7208;49.826;6.004;2022-08-30T04:04:23;2.90;;;2.50;;
14247;SDS011;7208;49.826;6.004;2022-08-30T04:06:50;2.73;;;2.37;;
14247;SDS011;7208;49.826;6.004;2022-08-30T04:09:16;3.73;;;2.73;;
14247;SDS011;7208;49.826;6.004;2022-08-30T04:11:42;2.80;;;2.27;;
14247;SDS011;7208;49.826;6.004;2022-08-30T04:14:08;4.30;;;2.43;;
14247;SDS011;7208;49.826;6.004;2022-08-30T04:16:34;2.77;;;2.07;;
14247;SDS011;7208;49.826;6.004;2022-08-30T04:19:00;3.47;;;3.13;;
14247;SDS011;7208;49.826;6.004;2022-08-30T04:21:26;4.20;;;2.60;;
14247;SDS011;7208;49.826;6.004;2022-08-30T04:23:52;3.93;;;2.63;;
14247;SDS011;7208;49.826;6.004;2022-08-30T04:26:17;3.33;;;3.00;;
14247;SDS011;7208;49.826;6.004;2022-08-30T04:28:43;3.57;;;2.53;;
14247;SDS011;7208;49.826;6.004;2022-08-30T04:31:13;2.70;;;2.47;;
14247;SDS011;7208;49.826;6.004;2022-08-30T04:33:40;2.73;;;2.53;;
14247;SDS011;7208;49.826;6.004;2022-08-30T04:36:07;2.70;;;2.50;;
14247;SDS011;7208;49.826;6.004;2022-08-30T04:38:35;2.57;;;2.07;;
14247;SDS011;7208;49.826;6.004;2022-08-30T04:41:02;2.60;;;2.33;;
14247;SDS011;7208;49.826;6.004;2022-08-30T04:43:33;4.33;;;2.60;;
14247;SDS011;7208;49.826;6.004;2022-08-30T04:45:58;3.43;;;2.13;;
14247;SDS011;7208;49.826;6.004;2022-08-30T04:48:24;3.80;;;2.50;;
14247;SDS011;7208;49.826;6.004;2022-08-30T04:50:49;3.83;;;3.07;;
14247;SDS011;7208;49.826;6.004;2022-08-30T04:53:15;3.93;;;2.60;;
14247;SDS011;7208;49.826;6.004;2022-08-30T04:55:41;4.60;;;2.37;;
14247;SDS011;7208;49.826;6.004;2022-08-30T04:58:07;3.13;;;2.70;;
14247;SDS011;7208;49.826;6.004;2022-08-30T05:00:34;4.50;;;3.17;;
14247;SDS011;7208;49.826;6.004;2022-08-30T05:03:01;3.80;;;2.70;;
14247;SDS011;7208;49.826;6.004;2022-08-30T05:05:27;5.90;;;2.30;;
14247;SDS011;7208;49.826;6.004;2022-08-30T05:08:12;3.53;;;3.03;;
14247;SDS011;7208;49.826;6.004;2022-08-30T05:10:41;3.30;;;2.67;;
14247;SDS011;7208;49.826;6.004;2022-08-30T05:13:09;3.30;;;3.00;;
14247;SDS011;7208;49.826;6.004;2022-08-30T05:15:35;6.40;;;3.00;;
14247;SDS011;7208;49.826;6.004;2022-08-30T05:18:03;4.40;;;2.90;;
14247;SDS011;7208;49.826;6.004;2022-08-30T05:20:31;4.90;;;2.37;;
14247;SDS011;7208;49.826;6.004;2022-08-30T05:22:58;3.37;;;2.40;;
14247;SDS011;7208;49.826;6.004;2022-08-30T05:25:26;2.60;;;2.40;;
14247;SDS011;7208;49.826;6.004;2022-08-30T05:27:55;3.50;;;2.90;;
14247;SDS011;7208;49.826;6.004;2022-08-30T05:30:21;3.73;;;2.43;;
14247;SDS011;7208;49.826;6.004;2022-08-30T05:32:48;4.67;;;2.20;;
14247;SDS011;7208;49.826;6.004;2022-08-30T05:35:15;3.30;;;2.47;;
14247;SDS011;7208;49.826;6.004;2022-08-30T05:37:42;4.33;;;2.70;;
14247;SDS011;7208;49.826;6.004;2022-08-30T05:40:08;4.37;;;2.70;;
14247;SDS011;7208;49.826;6.004;2022-08-30T05:42:35;2.50;;;2.27;;
14247;SDS011;7208;49.826;6.004;2022-08-30T05:45:02;3.37;;;2.40;;
14247;SDS011;7208;49.826;6.004;2022-08-30T05:47:29;3.90;;;2.67;;
14247;SDS011;7208;49.826;6.004;2022-08-30T05:49:54;3.80;;;2.20;;
14247;SDS011;7208;49.826;6.004;2022-08-30T05:52:20;4.93;;;2.30;;
14247;SDS011;7208;49.826;6.004;2022-08-30T05:54:53;4.47;;;2.03;;
14247;SDS011;7208;49.826;6.004;2022-08-30T05:57:20;3.83;;;2.27;;
14247;SDS011;7208;49.826;6.004;2022-08-30T05:59:46;4.30;;;2.47;;
14247;SDS011;7208;49.826;6.004;2022-08-30T06:02:12;3.90;;;2.10;;
14247;SDS011;7208;49.826;6.004;2022-08-30T06:04:38;3.73;;;1.93;;
14247;SDS011;7208;49.826;6.004;2022-08-30T06:07:03;6.00;;;2.47;;
14247;SDS011;7208;49.826;6.004;2022-08-30T06:09:29;3.13;;;2.27;;
14247;SDS011;7208;49.826;6.004;2022-08-30T06:11:55;4.17;;;2.57;;
14247;SDS011;7208;49.826;6.004;2022-08-30T06:14:21;5.67;;;2.43;;
14247;SDS011;7208;49.826;6.004;2022-08-30T06:16:48;3.70;;;2.17;;
14247;SDS011;7208;49.826;6.004;2022-08-30T06:19:14;9.27;;;2.67;;
14247;SDS011;7208;49.826;6.004;2022-08-30T06:21:40;4.00;;;2.50;;
14247;SDS011;7208;49.826;6.004;2022-08-30T06:24:07;4.30;;;2.43;;
14247;SDS011;7208;49.826;6.004;2022-08-30T06:26:36;9.47;;;2.90;;
14247;SDS011;7208;49.826;6.004;2022-08-30T06:29:06;4.13;;;2.37;;
14247;SDS011;7208;49.826;6.004;2022-08-30T06:31:34;4.10;;;2.53;;
14247;SDS011;7208;49.826;6.004;2022-08-30T06:33:59;10.03;;;3.53;;
14247;SDS011;7208;49.826;6.004;2022-08-30T06:36:25;5.23;;;2.17;;
14247;SDS011;7208;49.826;6.004;2022-08-30T06:38:52;4.00;;;2.30;;
14247;SDS011;7208;49.826;6.004;2022-08-30T06:41:20;4.23;;;2.37;;
14247;SDS011;7208;49.826;6.004;2022-08-30T06:43:51;4.50;;;1.90;;
14247;SDS011;7208;49.826;6.004;2022-08-30T06:46:18;5.40;;;2.10;;
14247;SDS011;7208;49.826;6.004;2022-08-30T06:48:46;3.57;;;2.23;;
14247;SDS011;7208;49.826;6.004;2022-08-30T06:51:12;2.10;;;1.73;;
14247;SDS011;7208;49.826;6.004;2022-08-30T06:53:38;5.30;;;2.13;;
14247;SDS011;7208;49.826;6.004;2022-08-30T06:56:05;3.93;;;2.77;;
14247;SDS011;7208;49.826;6.004;2022-08-30T06:58:33;3.33;;;2.03;;
14247;SDS011;7208;49.826;6.004;2022-08-30T07:01:02;2.80;;;2.27;;
14247;SDS011;7208;49.826;6.004;2022-08-30T07:03:28;3.60;;;2.07;;
14247;SDS011;7208;49.826;6.004;2022-08-30T07:05:54;3.33;;;1.87;;
14247;SDS011;7208;49.826;6.004;2022-08-30T07:08:20;4.20;;;2.00;;
14247;SDS011;7208;49.826;6.004;2022-08-30T07:10:47;3.63;;;2.43;;
14247;SDS011;7208;49.826;6.004;2022-08-30T07:13:13;2.67;;;2.00;;
14247;SDS011;7208;49.826;6.004;2022-08-30T07:15:40;3.17;;;2.50;;
14247;SDS011;7208;49.826;6.004;2022-08-30T07:18:07;2.07;;;1.87;;
14247;SDS011;7208;49.826;6.004;2022-08-30T07:20:52;3.60;;;1.87;;
14247;SDS011;7208;49.826;6.004;2022-08-30T07:23:18;5.13;;;2.03;;
14247;SDS011;7208;49.826;6.004;2022-08-30T07:25:43;4.20;;;2.00;;
14247;SDS011;7208;49.826;6.004;2022-08-30T07:28:10;4.77;;;2.30;;
14247;SDS011;7208;49.826;6.004;2022-08-30T07:30:35;3.63;;;1.83;;
14247;SDS011;7208;49.826;6.004;2022-08-30T07:33:01;4.20;;;1.90;;
14247;SDS011;7208;49.826;6.004;2022-08-30T07:35:27;3.60;;;1.67;;
14247;SDS011;7208;49.826;6.004;2022-08-30T07:37:53;2.90;;;1.80;;
14247;SDS011;7208;49.826;6.004;2022-08-30T07:40:19;2.67;;;1.53;;
14247;SDS011;7208;49.826;6.004;2022-08-30T07:42:45;4.00;;;1.63;;
14247;SDS011;7208;49.826;6.004;2022-08-30T07:45:10;3.83;;;2.20;;
14247;SDS011;7208;49.826;6.004;2022-08-30T07:47:37;2.47;;;1.90;;
14247;SDS011;7208;49.826;6.004;2022-08-30T07:50:03;4.33;;;2.10;;
14247;SDS011;7208;49.826;6.004;2022-08-30T07:52:30;3.83;;;2.33;;
14247;SDS011;7208;49.826;6.004;2022-08-30T07:54:57;2.20;;;1.87;;
14247;SDS011;7208;49.826;6.004;2022-08-30T07:57:23;3.90;;;1.70;;
14247;SDS011;7208;49.826;6.004;2022-08-30T07:59:49;3.43;;;1.80;;
14247;SDS011;7208;49.826;6.004;2022-08-30T08:02:16;5.20;;;1.60;;
14247;SDS011;7208;49.826;6.004;2022-08-30T08:04:42;4.30;;;1.63;;
14247;SDS011;7208;49.826;6.004;2022-08-30T08:07:08;3.87;;;1.93;;
14247;SDS011;7208;49.826;6.004;2022-08-30T08:09:35;4.73;;;1.90;;
14247;SDS011;7208;49.826;6.004;2022-08-30T08:12:02;4.23;;;1.77;;
14247;SDS011;7208;49.826;6.004;2022-08-30T08:14:29;2.90;;;1.50;;
14247;SDS011;7208;49.826;6.004;2022-08-30T08:16:55;2.60;;;1.80;;
14247;SDS011;7208;49.826;6.004;2022-08-30T08:19:20;2.97;;;1.67;;
14247;SDS011;7208;49.826;6.004;2022-08-30T08:21:46;2.80;;;2.00;;
14247;SDS011;7208;49.826;6.004;2022-08-30T08:24:12;3.00;;;1.70;;
14247;SDS011;7208;49.826;6.004;2022-08-30T08:26:38;5.17;;;1.67;;
14247;SDS011;7208;49.826;6.004;2022-08-30T08:29:04;4.40;;;2.07;;
14247;SDS011;7208;49.826;6.004;2022-08-30T08:31:31;3.40;;;2.10;;
14247;SDS011;7208;49.826;6.004;2022-08-30T08:33:57;1.67;;;1.47;;
14247;SDS011;7208;49.826;6.004;2022-08-30T08:36:24;4.47;;;2.03;;
14247;SDS011;7208;49.826;6.004;2022-08-30T08:38:51;3.53;;;2.00;;
14247;SDS011;7208;49.826;6.004;2022-08-30T08:44:03;6.50;;;1.67;;
14247;SDS011;7208;49.826;6.004;2022-08-30T08:47:22;3.67;;;1.90;;
14247;SDS011;7208;49.826;6.004;2022-08-30T08:49:41;4.73;;;1.90;;
14247;SDS011;7208;49.826;6.004;2022-08-30T08:52:29;3.10;;;2.00;;
14247;SDS011;7208;49.826;6.004;2022-08-30T08:55:27;1.90;;;1.73;;
14247;SDS011;7208;49.826;6.004;2022-08-30T08:57:54;3.73;;;1.53;;
14247;SDS011;7208;49.826;6.004;2022-08-30T09:00:20;3.90;;;1.50;;
14247;SDS011;7208;49.826;6.004;2022-08-30T09:02:47;2.33;;;1.90;;
14247;SDS011;7208;49.826;6.004;2022-08-30T09:05:28;3.27;;;1.60;;
14247;SDS011;7208;49.826;6.004;2022-08-30T09:08:01;3.20;;;1.90;;
14247;SDS011;7208;49.826;6.004;2022-08-30T09:10:30;2.73;;;1.70;;
14247;SDS011;7208;49.826;6.004;2022-08-30T09:12:57;3.33;;;1.73;;
14247;SDS011;7208;49.826;6.004;2022-08-30T09:15:25;2.33;;;1.97;;
14247;SDS011;7208;49.826;6.004;2022-08-30T09:22:49;2.70;;;1.60;;
14247;SDS011;7208;49.826;6.004;2022-08-30T09:28:07;3.17;;;1.97;;
14247;SDS011;7208;49.826;6.004;2022-08-30T09:30:38;6.17;;;1.90;;
14247;SDS011;7208;49.826;6.004;2022-08-30T09:33:17;2.80;;;1.47;;
14247;SDS011;7208;49.826;6.004;2022-08-30T09:35:46;1.93;;;1.60;;
14247;SDS011;7208;49.826;6.004;2022-08-30T09:38:17;2.33;;;1.80;;
14247;SDS011;7208;49.826;6.004;2022-08-30T09:41:01;2.40;;;1.90;;
14247;SDS011;7208;49.826;6.004;2022-08-30T09:43:51;3.93;;;1.70;;
14247;SDS011;7208;49.826;6.004;2022-08-30T09:46:30;3.17;;;1.60;;
14247;SDS011;7208;49.826;6.004;2022-08-30T09:48:56;2.57;;;1.83;;
14247;SDS011;7208;49.826;6.004;2022-08-30T09:51:33;2.23;;;1.70;;
14247;SDS011;7208;49.826;6.004;2022-08-30T09:54:18;3.00;;;1.93;;
14247;SDS011;7208;49.826;6.004;2022-08-30T09:56:59;2.70;;;1.70;;
14247;SDS011;7208;49.826;6.004;2022-08-30T10:02:05;5.67;;;2.07;;
14247;SDS011;7208;49.826;6.004;2022-08-30T10:15:20;2.60;;;1.77;;
14247;SDS011;7208;49.826;6.004;2022-08-30T10:23:47;6.07;;;2.03;;
14247;SDS011;7208;49.826;6.004;2022-08-30T10:26:25;5.07;;;1.97;;
14247;SDS011;7208;49.826;6.004;2022-08-30T10:31:41;4.33;;;2.23;;
14247;SDS011;7208;49.826;6.004;2022-08-30T10:34:24;5.90;;;2.03;;
14247;SDS011;7208;49.826;6.004;2022-08-30T10:36:55;2.60;;;2.37;;
14247;SDS011;7208;49.826;6.004;2022-08-30T10:39:27;4.25;;;2.38;;
14247;SDS011;7208;49.826;6.004;2022-08-30T10:42:02;2.72;;;1.90;;
14247;SDS011;7208;49.826;6.004;2022-08-30T10:44:36;2.40;;;1.85;;
14247;SDS011;7208;49.826;6.004;2022-08-30T10:47:54;4.07;;;2.28;;
14247;SDS011;7208;49.826;6.004;2022-08-30T10:50:31;3.63;;;2.42;;
14247;SDS011;7208;49.826;6.004;2022-08-30T10:52:51;12.75;;;2.88;;
14247;SDS011;7208;49.826;6.004;2022-08-30T10:55:27;6.60;;;2.40;;
14247;SDS011;7208;49.826;6.004;2022-08-30T10:58:01;5.57;;;2.60;;
14247;SDS011;7208;49.826;6.004;2022-08-30T11:00:30;7.10;;;3.20;;
14247;SDS011;7208;49.826;6.004;2022-08-30T11:06:36;4.38;;;2.45;;
14247;SDS011;7208;49.826;6.004;2022-08-30T11:12:15;3.92;;;2.78;;
14247;SDS011;7208;49.826;6.004;2022-08-30T11:14:50;6.25;;;2.65;;
14247;SDS011;7208;49.826;6.004;2022-08-30T11:17:28;2.45;;;2.25;;
14247;SDS011;7208;49.826;6.004;2022-08-30T11:19:57;2.63;;;2.42;;
14247;SDS011;7208;49.826;6.004;2022-08-30T11:22:30;3.65;;;2.75;;
14247;SDS011;7208;49.826;6.004;2022-08-30T11:30:44;2.95;;;2.65;;
14247;SDS011;7208;49.826;6.004;2022-08-30T11:33:02;3.92;;;2.42;;
14247;SDS011;7208;49.826;6.004;2022-08-30T11:35:42;2.88;;;2.67;;
14247;SDS011;7208;49.826;6.004;2022-08-30T11:44:03;2.88;;;2.67;;
14247;SDS011;7208;49.826;6.004;2022-08-30T11:51:44;3.33;;;2.47;;
14247;SDS011;7208;49.826;6.004;2022-08-30T12:05:08;5.45;;;3.00;;
14247;SDS011;7208;49.826;6.004;2022-08-30T12:07:55;4.32;;;2.67;;
14247;SDS011;7208;49.826;6.004;2022-08-30T12:10:34;2.85;;;2.60;;
14247;SDS011;7208;49.826;6.004;2022-08-30T12:18:30;3.25;;;2.92;;
14247;SDS011;7208;49.826;6.004;2022-08-30T12:21:04;3.00;;;2.78;;
14247;SDS011;7208;49.826;6.004;2022-08-30T12:23:56;3.13;;;2.80;;
14247;SDS011;7208;49.826;6.004;2022-08-30T12:31:43;4.93;;;2.95;;
14247;SDS011;7208;49.826;6.004;2022-08-30T12:34:16;3.42;;;2.70;;
14247;SDS011;7208;49.826;6.004;2022-08-30T12:37:07;2.70;;;2.50;;
14247;SDS011;7208;49.826;6.004;2022-08-30T12:39:48;3.15;;;2.40;;
14247;SDS011;7208;49.826;6.004;2022-08-30T12:42:40;3.72;;;2.50;;
14247;SDS011;7208;49.826;6.004;2022-08-30T12:45:14;3.60;;;2.33;;
14247;SDS011;7208;49.826;6.004;2022-08-30T12:47:45;2.67;;;2.20;;
14247;SDS011;7208;49.826;6.004;2022-08-30T12:50:24;2.88;;;2.63;;
14247;SDS011;7208;49.826;6.004;2022-08-30T12:52:56;2.90;;;2.45;;
14247;SDS011;7208;49.826;6.004;2022-08-30T12:55:25;3.25;;;2.45;;
14247;SDS011;7208;49.826;6.004;2022-08-30T13:00:36;5.07;;;2.30;;
14247;SDS011;7208;49.826;6.004;2022-08-30T13:06:03;3.35;;;2.53;;
14247;SDS011;7208;49.826;6.004;2022-08-30T13:11:24;3.20;;;2.13;;
14247;SDS011;7208;49.826;6.004;2022-08-30T13:13:52;3.30;;;2.63;;
14247;SDS011;7208;49.826;6.004;2022-08-30T13:16:21;2.58;;;2.38;;
14247;SDS011;7208;49.826;6.004;2022-08-30T13:21:56;2.30;;;2.10;;
14247;SDS011;7208;49.826;6.004;2022-08-30T13:24:23;2.38;;;2.17;;
14247;SDS011;7208;49.826;6.004;2022-08-30T13:26:50;2.50;;;2.25;;
14247;SDS011;7208;49.826;6.004;2022-08-30T13:29:19;2.40;;;2.25;;
14247;SDS011;7208;49.826;6.004;2022-08-30T13:31:47;5.80;;;2.75;;
14247;SDS011;7208;49.826;6.004;2022-08-30T13:34:13;2.20;;;2.00;;
14247;SDS011;7208;49.826;6.004;2022-08-30T13:36:44;3.65;;;2.53;;
14247;SDS011;7208;49.826;6.004;2022-08-30T13:39:12;2.47;;;2.25;;
14247;SDS011;7208;49.826;6.004;2022-08-30T13:41:38;2.83;;;2.10;;
14247;SDS011;7208;49.826;6.004;2022-08-30T13:44:04;2.33;;;2.10;;
14247;SDS011;7208;49.826;6.004;2022-08-30T13:46:30;2.50;;;2.30;;
14247;SDS011;7208;49.826;6.004;2022-08-30T13:49:01;2.65;;;2.45;;
14247;SDS011;7208;49.826;6.004;2022-08-30T13:51:29;2.13;;;1.92;;
14247;SDS011;7208;49.826;6.004;2022-08-30T13:53:55;2.50;;;2.17;;
14247;SDS011;7208;49.826;6.004;2022-08-30T13:56:21;3.75;;;2.50;;
14247;SDS011;7208;49.826;6.004;2022-08-30T13:58:48;3.25;;;2.20;;
14247;SDS011;7208;49.826;6.004;2022-08-30T14:01:14;2.13;;;1.92;;
14247;SDS011;7208;49.826;6.004;2022-08-30T14:03:40;4.13;;;2.22;;
14247;SDS011;7208;49.826;6.004;2022-08-30T14:06:06;2.42;;;2.10;;
14247;SDS011;7208;49.826;6.004;2022-08-30T14:08:32;3.30;;;2.40;;
14247;SDS011;7208;49.826;6.004;2022-08-30T14:11:01;2.97;;;2.35;;
14247;SDS011;7208;49.826;6.004;2022-08-30T14:13:27;3.08;;;2.35;;
14247;SDS011;7208;49.826;6.004;2022-08-30T14:15:53;2.47;;;2.28;;
14247;SDS011;7208;49.826;6.004;2022-08-30T14:18:19;2.40;;;2.20;;
14247;SDS011;7208;49.826;6.004;2022-08-30T14:20:45;2.10;;;1.90;;
14247;SDS011;7208;49.826;6.004;2022-08-30T14:23:11;2.55;;;2.03;;
14247;SDS011;7208;49.826;6.004;2022-08-30T14:25:37;2.95;;;2.20;;
14247;SDS011;7208;49.826;6.004;2022-08-30T14:28:03;2.25;;;2.08;;
14247;SDS011;7208;49.826;6.004;2022-08-30T14:30:29;2.30;;;2.20;;
14247;SDS011;7208;49.826;6.004;2022-08-30T14:32:55;3.08;;;2.13;;
14247;SDS011;7208;49.826;6.004;2022-08-30T14:35:21;2.45;;;2.25;;
14247;SDS011;7208;49.826;6.004;2022-08-30T14:37:47;2.17;;;2.08;;
14247;SDS011;7208;49.826;6.004;2022-08-30T14:40:14;2.75;;;2.50;;
14247;SDS011;7208;49.826;6.004;2022-08-30T14:42:40;2.50;;;2.30;;
14247;SDS011;7208;49.826;6.004;2022-08-30T14:45:06;4.10;;;2.67;;
14247;SDS011;7208;49.826;6.004;2022-08-30T14:47:32;2.60;;;2.40;;
14247;SDS011;7208;49.826;6.004;2022-08-30T14:49:58;2.65;;;2.28;;
14247;SDS011;7208;49.826;6.004;2022-08-30T14:52:26;2.67;;;2.47;;
14247;SDS011;7208;49.826;6.004;2022-08-30T14:54:52;2.80;;;2.33;;
14247;SDS011;7208;49.826;6.004;2022-08-30T14:57:18;2.30;;;2.10;;
14247;SDS011;7208;49.826;6.004;2022-08-30T14:59:44;2.35;;;2.25;;
14247;SDS011;7208;49.826;6.004;2022-08-30T15:02:09;2.47;;;2.30;;
14247;SDS011;7208;49.826;6.004;2022-08-30T15:04:35;2.53;;;2.10;;
14247;SDS011;7208;49.826;6.004;2022-08-30T15:07:00;3.55;;;2.22;;
14247;SDS011;7208;49.826;6.004;2022-08-30T15:09:26;3.78;;;2.40;;
14247;SDS011;7208;49.826;6.004;2022-08-30T15:11:53;2.35;;;2.17;;
14247;SDS011;7208;49.826;6.004;2022-08-30T15:14:21;4.72;;;2.60;;
14247;SDS011;7208;49.826;6.004;2022-08-30T15:16:47;2.17;;;2.08;;
14247;SDS011;7208;49.826;6.004;2022-08-30T15:19:13;2.50;;;2.30;;
14247;SDS011;7208;49.826;6.004;2022-08-30T15:21:40;2.97;;;2.30;;
14247;SDS011;7208;49.826;6.004;2022-08-30T15:24:09;2.70;;;2.50;;
14247;SDS011;7208;49.826;6.004;2022-08-30T15:26:39;3.20;;;2.53;;
14247;SDS011;7208;49.826;6.004;2022-08-30T15:29:07;3.10;;;2.35;;
14247;SDS011;7208;49.826;6.004;2022-08-30T15:31:37;2.85;;;2.45;;
14247;SDS011;7208;49.826;6.004;2022-08-30T15:34:07;2.08;;;1.95;;
14247;SDS011;7208;49.826;6.004;2022-08-30T15:36:34;2.72;;;2.53;;
14247;SDS011;7208;49.826;6.004;2022-08-30T15:39:02;3.60;;;2.60;;
14247;SDS011;7208;49.826;6.004;2022-08-30T15:41:28;2.40;;;2.20;;
14247;SDS011;7208;49.826;6.004;2022-08-30T15:43:55;3.07;;;2.50;;
14247;SDS011;7208;49.826;6.004;2022-08-30T15:46:24;4.93;;;2.00;;
14247;SDS011;7208;49.826;6.004;2022-08-30T15:48:53;2.10;;;2.00;;
14247;SDS011;7208;49.826;6.004;2022-08-30T15:51:22;1.90;;;1.80;;
14247;SDS011;7208;49.826;6.004;2022-08-30T15:53:48;2.23;;;1.90;;
14247;SDS011;7208;49.826;6.004;2022-08-30T15:56:15;3.77;;;2.30;;
14247;SDS011;7208;49.826;6.004;2022-08-30T15:58:41;2.00;;;1.90;;
14247;SDS011;7208;49.826;6.004;2022-08-30T16:01:07;2.63;;;1.77;;
14247;SDS011;7208;49.826;6.004;2022-08-30T16:03:33;2.20;;;2.00;;
14247;SDS011;7208;49.826;6.004;2022-08-30T16:05:59;3.37;;;2.10;;
14247;SDS011;7208;49.826;6.004;2022-08-30T16:08:26;2.43;;;2.33;;
14247;SDS011;7208;49.826;6.004;2022-08-30T16:10:52;4.33;;;2.40;;
14247;SDS011;7208;49.826;6.004;2022-08-30T16:13:18;2.23;;;2.00;;
14247;SDS011;7208;49.826;6.004;2022-08-30T16:15:44;2.75;;;2.40;;
14247;SDS011;7208;49.826;6.004;2022-08-30T16:18:11;4.50;;;2.90;;
14247;SDS011;7208;49.826;6.004;2022-08-30T16:20:41;4.43;;;2.67;;
14247;SDS011;7208;49.826;6.004;2022-08-30T16:23:08;3.40;;;2.60;;
14247;SDS011;7208;49.826;6.004;2022-08-30T16:25:34;2.80;;;2.60;;
14247;SDS011;7208;49.826;6.004;2022-08-30T16:28:01;5.13;;;2.70;;
14247;SDS011;7208;49.826;6.004;2022-08-30T16:30:27;3.73;;;3.17;;
14247;SDS011;7208;49.826;6.004;2022-08-30T16:32:53;4.80;;;2.77;;
14247;SDS011;7208;49.826;6.004;2022-08-30T16:35:19;3.60;;;3.00;;
14247;SDS011;7208;49.826;6.004;2022-08-30T16:37:45;3.33;;;2.67;;
14247;SDS011;7208;49.826;6.004;2022-08-30T16:40:11;4.23;;;2.97;;